Time;durP1;ratioP1;P1;durP2;ratioP2;P2;SDS_P1;SDS_P2;PMS_P1;PMS_P2;Temp;Humidity;BMP_temperature;BMP_pressure;BME280_temperature;BME280_humidity;BME280_pressure;Samples;Min_cycle;Max_cycle;Signal;HPM_P1;HPM_P2
2021/12/03 00:00:46;;;;;;;17.88;10.90;;;2.40;99.90;;;;;;5071001;28;20153;-73
2021/12/03 00:03:12;;;;;;;14.88;9.57;;;2.40;99.90;;;;;;5071112;28;20247;-74
2021/12/03 00:05:39;;;;;;;17.83;11.35;;;2.40;99.90;;;;;;5071016;28;20188;-75
2021/12/03 00:08:06;;;;;;;16.20;9.77;;;2.40;99.90;;;;;;5071077;28;20153;-75
2021/12/03 00:10:34;;;;;;;19.98;10.77;;;2.30;99.90;;;;;;5070887;28;20203;-75
2021/12/03 00:13:00;;;;;;;20.40;12.25;;;2.40;99.90;;;;;;5070750;28;20161;-74
2021/12/03 00:15:27;;;;;;;16.65;10.13;;;2.30;99.90;;;;;;5070718;28;20215;-74
2021/12/03 00:17:54;;;;;;;17.50;10.40;;;2.40;99.90;;;;;;5070676;28;20192;-75
2021/12/03 00:20:23;;;;;;;15.50;10.07;;;2.40;99.90;;;;;;5070704;28;20156;-75
2021/12/03 00:22:52;;;;;;;19.73;11.27;;;2.40;99.90;;;;;;5070520;28;20605;-74
2021/12/03 00:25:19;;;;;;;28.98;13.23;;;2.30;99.90;;;;;;5052585;28;20264;-74
2021/12/03 00:27:45;;;;;;;22.45;11.60;;;2.30;99.90;;;;;;5070618;28;20244;-75
2021/12/03 00:30:13;;;;;;;18.52;9.82;;;2.30;99.90;;;;;;5069911;28;20187;-75
2021/12/03 00:32:40;;;;;;;15.57;9.98;;;2.30;99.90;;;;;;5051900;28;20266;-75
2021/12/03 00:35:09;;;;;;;16.63;10.90;;;2.30;99.90;;;;;;5069219;28;20157;-75
2021/12/03 00:37:37;;;;;;;18.27;11.20;;;2.30;99.90;;;;;;5069226;28;20190;-75
2021/12/03 00:40:08;;;;;;;20.73;12.15;;;2.30;99.90;;;;;;5070214;28;20157;-74
2021/12/03 00:42:34;;;;;;;15.52;11.10;;;2.40;99.90;;;;;;5070262;28;20168;-74
2021/12/03 00:45:01;;;;;;;17.58;10.55;;;2.30;99.90;;;;;;5070234;28;20153;-73
2021/12/03 00:47:27;;;;;;;18.90;9.57;;;2.30;99.90;;;;;;5052271;28;20261;-74
2021/12/03 00:49:53;;;;;;;18.48;10.80;;;2.30;99.90;;;;;;5052198;28;20168;-75
2021/12/03 00:52:19;;;;;;;17.10;11.60;;;2.20;99.90;;;;;;5070076;28;20168;-74
2021/12/03 00:54:45;;;;;;;18.90;10.02;;;2.20;99.90;;;;;;5052106;28;20165;-75
2021/12/03 00:57:19;;;;;;;18.90;10.73;;;2.20;99.90;;;;;;5127400;27;20930;-75
2021/12/03 00:59:44;;;;;;;17.90;10.55;;;2.10;99.90;;;;;;5106851;28;20183;-75
2021/12/03 01:02:10;;;;;;;16.05;10.38;;;2.20;99.90;;;;;;5088542;28;20217;-75
2021/12/03 01:04:36;;;;;;;18.27;11.80;;;2.20;99.90;;;;;;5088616;28;20657;-75
2021/12/03 01:07:03;;;;;;;25.77;11.75;;;2.20;99.90;;;;;;5069743;28;20245;-75
2021/12/03 01:09:31;;;;;;;18.50;10.93;;;2.10;99.90;;;;;;5068479;28;20186;-75
2021/12/03 01:11:58;;;;;;;17.02;9.20;;;2.20;99.90;;;;;;5086287;28;20180;-75
2021/12/03 01:14:24;;;;;;;18.73;9.88;;;2.10;99.90;;;;;;5086378;28;20160;-75
2021/12/03 01:16:50;;;;;;;18.92;9.98;;;2.00;99.90;;;;;;5086057;28;20317;-75
2021/12/03 01:19:16;;;;;;;19.58;10.48;;;2.00;99.90;;;;;;5068241;28;20541;-75
2021/12/03 01:21:42;;;;;;;19.33;10.52;;;1.90;99.90;;;;;;5068198;28;20165;-75
2021/12/03 01:24:08;;;;;;;16.38;9.68;;;1.90;99.90;;;;;;5068190;28;20172;-75
2021/12/03 01:26:35;;;;;;;17.17;9.60;;;1.80;99.90;;;;;;5068104;28;20203;-76
2021/12/03 01:29:03;;;;;;;16.52;9.98;;;1.70;99.90;;;;;;5085987;28;20161;-75
2021/12/03 01:31:29;;;;;;;17.52;9.93;;;1.80;99.90;;;;;;5068055;28;20176;-75
2021/12/03 01:33:55;;;;;;;17.60;10.55;;;1.80;99.90;;;;;;5085992;28;20167;-75
2021/12/03 01:36:20;;;;;;;17.15;10.02;;;1.70;99.90;;;;;;5067899;28;20294;-75
2021/12/03 01:38:46;;;;;;;15.63;8.95;;;1.60;99.90;;;;;;5067900;28;20234;-75
2021/12/03 01:41:12;;;;;;;17.83;10.88;;;1.60;99.90;;;;;;5085781;28;20156;-75
2021/12/03 01:43:39;;;;;;;15.82;9.75;;;1.50;99.90;;;;;;5067757;28;20194;-74
2021/12/03 01:46:09;;;;;;;20.17;11.02;;;1.40;99.90;;;;;;5067675;28;20220;-75
2021/12/03 01:48:36;;;;;;;17.83;10.02;;;1.40;99.90;;;;;;5085680;28;20180;-73
2021/12/03 01:51:03;;;;;;;19.33;11.15;;;1.40;99.90;;;;;;5085560;28;20161;-73
2021/12/03 01:53:32;;;;;;;17.63;10.68;;;1.30;99.90;;;;;;5085502;28;20161;-73
2021/12/03 01:56:02;;;;;;;16.02;9.00;;;1.30;99.90;;;;;;5076037;28;20288;-75
2021/12/03 01:58:28;;;;;;;21.70;10.60;;;1.30;99.90;;;;;;5047704;28;20256;-75
2021/12/03 02:00:58;;;;;;;17.10;10.20;;;1.30;99.90;;;;;;5065407;28;20165;-74
2021/12/03 02:03:31;;;;;;;18.63;10.88;;;1.20;99.90;;;;;;5065510;28;20171;-75
2021/12/03 02:05:59;;;;;;;24.50;10.68;;;1.10;99.90;;;;;;5065223;28;20188;-75
2021/12/03 02:08:26;;;;;;;18.67;10.10;;;1.20;99.90;;;;;;5035597;28;20208;-74
2021/12/03 02:10:53;;;;;;;18.52;10.48;;;1.20;99.90;;;;;;5051845;28;20178;-74
2021/12/03 02:13:19;;;;;;;19.25;11.00;;;1.20;99.90;;;;;;5051883;28;20162;-74
2021/12/03 02:15:45;;;;;;;15.00;10.43;;;1.20;99.90;;;;;;5051709;28;20553;-73
2021/12/03 02:18:12;;;;;;;17.65;10.68;;;1.20;99.90;;;;;;5050078;28;20212;-75
2021/12/03 02:20:59;;;;;;;15.02;8.48;;;1.20;99.90;;;;;;5051667;28;20204;-74
2021/12/03 02:23:27;;;;;;;14.25;8.45;;;1.40;99.90;;;;;;5051677;28;20162;-74
2021/12/03 02:25:54;;;;;;;12.60;7.53;;;1.60;99.90;;;;;;5051561;28;20153;-74
2021/12/03 02:28:23;;;;;;;7.60;4.32;;;1.70;99.90;;;;;;5051535;28;20172;-75
2021/12/03 02:30:50;;;;;;;7.97;3.75;;;2.10;99.90;;;;;;5033742;28;20223;-75
2021/12/03 02:33:16;;;;;;;11.90;6.10;;;2.40;99.90;;;;;;5051513;28;20221;-74
2021/12/03 02:35:44;;;;;;;5.22;3.70;;;2.50;99.90;;;;;;5033556;28;20251;-75
2021/12/03 02:38:14;;;;;;;6.88;3.55;;;2.40;99.90;;;;;;5051288;28;20177;-74
2021/12/03 02:40:41;;;;;;;7.82;3.45;;;2.40;99.90;;;;;;5051342;28;20192;-74
2021/12/03 02:43:08;;;;;;;7.40;3.58;;;2.50;99.90;;;;;;5033658;28;20174;-74
2021/12/03 02:45:34;;;;;;;9.27;4.35;;;2.40;99.90;;;;;;5051315;28;20156;-75
2021/12/03 02:48:02;;;;;;;16.10;5.65;;;2.40;99.90;;;;;;5033496;28;20177;-74
2021/12/03 02:50:28;;;;;;;8.88;5.13;;;2.50;99.90;;;;;;5051110;28;20224;-74
2021/12/03 02:52:55;;;;;;;8.88;5.22;;;2.50;99.90;;;;;;5033439;28;20173;-74
2021/12/03 02:55:23;;;;;;;9.07;4.18;;;2.40;99.90;;;;;;5050935;28;20240;-74
2021/12/03 02:57:50;;;;;;;5.85;3.83;;;2.50;99.90;;;;;;5033157;28;20166;-75
2021/12/03 03:00:21;;;;;;;8.00;4.72;;;2.50;99.90;;;;;;5033148;28;20193;-74
2021/12/03 03:02:47;;;;;;;7.95;4.63;;;2.40;99.90;;;;;;5033317;28;20165;-75
2021/12/03 03:05:15;;;;;;;6.70;4.28;;;2.30;99.90;;;;;;5050924;28;20166;-75
2021/12/03 03:07:43;;;;;;;11.60;5.13;;;2.20;99.90;;;;;;5050880;28;20157;-73
2021/12/03 03:10:14;;;;;;;13.70;7.65;;;2.10;99.90;;;;;;5032917;28;20201;-74
2021/12/03 03:12:42;;;;;;;12.77;7.95;;;2.20;99.90;;;;;;5050792;28;20822;-73
2021/12/03 03:15:10;;;;;;;13.07;6.43;;;2.30;99.90;;;;;;5032956;28;20181;-73
2021/12/03 03:17:36;;;;;;;12.93;7.10;;;2.30;99.90;;;;;;5033031;28;20210;-73
2021/12/03 03:20:04;;;;;;;12.65;5.95;;;2.30;99.90;;;;;;5049618;28;20197;-73
2021/12/03 03:22:30;;;;;;;11.18;5.93;;;2.20;99.90;;;;;;5050502;28;20549;-74
2021/12/03 03:25:00;;;;;;;10.73;6.45;;;2.10;99.90;;;;;;5050689;28;20158;-73
2021/12/03 03:27:28;;;;;;;12.30;6.25;;;2.10;99.90;;;;;;5050512;28;20153;-74
2021/12/03 03:29:54;;;;;;;13.52;7.53;;;2.00;99.90;;;;;;5032717;28;20200;-74
2021/12/03 03:32:21;;;;;;;13.32;7.40;;;2.00;99.90;;;;;;5050318;28;20252;-75
2021/12/03 03:34:47;;;;;;;16.38;7.55;;;2.10;99.90;;;;;;5050175;28;20162;-75
2021/12/03 03:37:14;;;;;;;9.77;6.45;;;2.10;99.90;;;;;;5050221;28;20228;-74
2021/12/03 03:39:40;;;;;;;9.60;6.72;;;2.10;99.90;;;;;;5050202;28;20219;-74
2021/12/03 03:42:07;;;;;;;11.27;7.30;;;2.10;99.90;;;;;;5032339;28;20166;-73
2021/12/03 03:44:34;;;;;;;11.88;5.93;;;2.00;99.90;;;;;;5050115;28;20225;-74
2021/12/03 03:47:01;;;;;;;9.27;6.28;;;2.00;99.90;;;;;;5049985;28;20184;-74
2021/12/03 03:49:28;;;;;;;9.48;6.25;;;1.90;99.90;;;;;;5050018;28;20211;-74
2021/12/03 03:51:55;;;;;;;12.60;6.95;;;1.90;99.90;;;;;;5032031;28;20208;-73
2021/12/03 03:54:21;;;;;;;11.23;6.85;;;1.90;99.90;;;;;;5031992;28;20175;-73
2021/12/03 03:56:48;;;;;;;12.38;6.90;;;1.90;99.90;;;;;;5060023;28;20228;-73
2021/12/03 03:59:17;;;;;;;11.27;6.68;;;1.80;99.90;;;;;;5069847;28;20180;-74
2021/12/03 04:01:49;;;;;;;10.93;6.20;;;1.80;99.90;;;;;;5069923;28;20153;-73
2021/12/03 04:04:15;;;;;;;15.95;9.00;;;1.80;99.90;;;;;;5069755;28;20152;-73
2021/12/03 04:06:42;;;;;;;13.75;7.75;;;1.80;99.90;;;;;;5069890;28;20216;-73
2021/12/03 04:09:09;;;;;;;18.83;7.90;;;1.90;99.90;;;;;;5068261;28;20211;-73
2021/12/03 04:11:35;;;;;;;11.77;6.60;;;1.90;99.90;;;;;;5069546;28;20165;-73
2021/12/03 04:14:02;;;;;;;11.18;6.28;;;1.90;99.90;;;;;;5069696;28;20156;-73
2021/12/03 04:16:30;;;;;;;15.65;8.18;;;1.80;99.90;;;;;;5069403;28;20180;-73
2021/12/03 04:19:00;;;;;;;12.20;6.43;;;1.80;99.90;;;;;;5068152;28;20176;-73
2021/12/03 04:21:27;;;;;;;16.20;10.13;;;1.90;99.90;;;;;;5068330;28;20256;-74
2021/12/03 04:23:54;;;;;;;14.68;7.65;;;1.80;99.90;;;;;;5069354;28;20216;-74
2021/12/03 04:26:21;;;;;;;13.25;7.32;;;1.80;99.90;;;;;;5069396;28;20152;-73
2021/12/03 04:28:48;;;;;;;11.27;6.22;;;1.80;99.90;;;;;;5067752;28;20168;-73
2021/12/03 04:31:14;;;;;;;12.18;6.97;;;1.80;99.90;;;;;;5068434;28;20345;-73
2021/12/03 04:33:39;;;;;;;14.95;6.78;;;1.70;99.90;;;;;;5068797;28;20229;-73
2021/12/03 04:36:06;;;;;;;13.02;6.60;;;1.70;99.90;;;;;;5068598;28;20986;-74
2021/12/03 04:38:32;;;;;;;13.65;7.07;;;1.70;99.90;;;;;;5068747;28;20164;-74
2021/12/03 04:41:01;;;;;;;13.40;6.32;;;1.70;99.90;;;;;;5067277;28;20196;-73
2021/12/03 04:43:28;;;;;;;14.43;6.75;;;1.70;99.90;;;;;;5068562;28;20160;-73
2021/12/03 04:45:54;;;;;;;11.65;6.68;;;1.70;99.90;;;;;;5068632;28;20172;-73
2021/12/03 04:48:20;;;;;;;10.50;6.35;;;1.70;99.90;;;;;;5067273;28;20214;-75
2021/12/03 04:50:46;;;;;;;12.00;6.57;;;1.70;99.90;;;;;;5067171;28;20952;-74
2021/12/03 04:53:14;;;;;;;10.60;5.68;;;1.70;99.90;;;;;;5067125;28;20172;-74
2021/12/03 04:55:40;;;;;;;8.75;6.03;;;1.70;99.90;;;;;;5061475;28;20221;-75
2021/12/03 04:58:07;;;;;;;9.98;5.25;;;1.70;99.90;;;;;;5030448;28;20177;-75
2021/12/03 05:00:37;;;;;;;11.43;6.47;;;1.70;99.90;;;;;;5048287;28;20189;-74
2021/12/03 05:03:04;;;;;;;10.30;5.18;;;1.60;99.90;;;;;;5048305;28;20192;-73
2021/12/03 05:05:34;;;;;;;8.98;5.45;;;1.60;99.90;;;;;;5048378;28;20165;-73
2021/12/03 05:08:04;;;;;;;11.07;6.13;;;1.60;99.90;;;;;;5030608;28;20166;-76
2021/12/03 05:10:33;;;;;;;8.77;4.72;;;1.50;99.90;;;;;;5048251;28;20189;-75
2021/12/03 05:13:06;;;;;;;10.20;5.53;;;1.50;99.90;;;;;;5048321;28;20157;-74
2021/12/03 05:15:33;;;;;;;14.98;7.75;;;1.60;99.90;;;;;;5048206;28;20649;-74
2021/12/03 05:17:59;;;;;;;7.45;5.72;;;1.50;99.90;;;;;;5031260;28;20174;-74
2021/12/03 05:20:26;;;;;;;9.65;5.70;;;1.50;99.90;;;;;;5030649;28;20193;-74
2021/12/03 05:22:53;;;;;;;7.38;5.38;;;1.50;99.90;;;;;;5030966;28;20169;-74
2021/12/03 05:25:20;;;;;;;10.35;6.20;;;1.50;99.90;;;;;;5048886;28;20161;-74
2021/12/03 05:27:47;;;;;;;13.60;4.65;;;1.40;99.90;;;;;;5048712;28;20212;-74
2021/12/03 05:30:13;;;;;;;11.38;4.90;;;1.50;99.90;;;;;;5030991;28;20204;-74
2021/12/03 05:32:40;;;;;;;11.30;5.55;;;1.50;99.90;;;;;;5030669;28;20169;-74
2021/12/03 05:35:08;;;;;;;10.25;4.95;;;1.50;99.90;;;;;;5047687;28;20200;-75
2021/12/03 05:37:34;;;;;;;10.57;5.10;;;1.50;99.90;;;;;;5048213;28;20172;-75
2021/12/03 05:40:02;;;;;;;8.10;5.60;;;1.50;99.90;;;;;;5030766;28;20176;-76
2021/12/03 05:42:28;;;;;;;8.80;5.35;;;1.50;99.90;;;;;;5031783;28;20634;-76
2021/12/03 05:44:54;;;;;;;10.82;5.45;;;1.50;99.90;;;;;;5034543;28;20193;-75
2021/12/03 05:47:21;;;;;;;9.27;5.65;;;1.50;99.90;;;;;;5052285;28;20170;-75
2021/12/03 05:49:47;;;;;;;6.47;4.03;;;1.40;99.90;;;;;;5034467;28;20191;-74
2021/12/03 05:52:13;;;;;;;7.53;4.50;;;1.40;99.90;;;;;;5051846;28;20158;-74
2021/12/03 05:54:39;;;;;;;9.90;4.65;;;1.40;99.90;;;;;;5034234;28;20201;-75
2021/12/03 05:57:05;;;;;;;8.18;4.38;;;1.40;99.90;;;;;;5051901;28;20225;-74
2021/12/03 05:59:31;;;;;;;7.60;4.03;;;1.30;99.90;;;;;;5051996;28;20176;-75
2021/12/03 06:01:57;;;;;;;4.40;3.50;;;1.30;99.90;;;;;;5052013;28;20158;-75
2021/12/03 06:04:23;;;;;;;6.05;3.28;;;1.30;99.90;;;;;;5033902;28;20561;-74
2021/12/03 06:06:48;;;;;;;5.05;3.63;;;1.30;99.90;;;;;;5034082;28;20177;-74
2021/12/03 06:09:15;;;;;;;7.82;4.40;;;1.30;99.90;;;;;;5034163;28;20181;-75
2021/12/03 06:11:41;;;;;;;4.10;3.03;;;1.20;99.90;;;;;;5033770;28;20260;-75
2021/12/03 06:14:07;;;;;;;5.45;3.28;;;1.30;99.90;;;;;;5051490;28;20201;-75
2021/12/03 06:16:33;;;;;;;7.15;3.30;;;1.30;99.90;;;;;;5033884;28;20239;-75
2021/12/03 06:18:59;;;;;;;9.88;3.25;;;1.30;99.90;;;;;;5033555;28;20180;-74
2021/12/03 06:21:24;;;;;;;5.18;3.40;;;1.30;99.90;;;;;;5051602;28;20180;-74
2021/12/03 06:23:50;;;;;;;4.70;3.30;;;1.20;99.90;;;;;;5051429;28;20193;-74
2021/12/03 06:26:16;;;;;;;5.93;3.35;;;1.10;99.90;;;;;;5051477;28;20185;-74
2021/12/03 06:28:42;;;;;;;4.32;2.72;;;1.10;99.90;;;;;;5050861;28;20169;-74
2021/12/03 06:31:08;;;;;;;8.98;2.75;;;1.20;99.90;;;;;;5051250;28;20610;-74
2021/12/03 06:33:34;;;;;;;4.15;2.63;;;1.30;99.90;;;;;;5051161;28;20174;-73
2021/12/03 06:36:00;;;;;;;4.65;3.08;;;1.30;99.90;;;;;;5033426;28;20253;-75
2021/12/03 06:38:26;;;;;;;5.72;3.80;;;1.40;99.90;;;;;;5051052;28;20221;-75
2021/12/03 06:40:54;;;;;;;9.93;3.40;;;1.40;99.90;;;;;;5051382;28;20172;-75
2021/12/03 06:43:20;;;;;;;7.55;5.22;;;1.40;99.90;;;;;;5051100;28;20169;-74
2021/12/03 06:45:46;;;;;;;15.40;5.80;;;1.40;99.90;;;;;;5033278;28;20280;-75
2021/12/03 06:48:13;;;;;;;9.48;5.22;;;1.40;99.90;;;;;;5051254;28;20252;-74
2021/12/03 06:50:39;;;;;;;9.00;4.68;;;1.30;99.90;;;;;;5051078;28;20180;-75
2021/12/03 06:53:16;;;;;;;9.05;4.18;;;1.40;99.90;;;;;;5050887;28;20174;-74
2021/12/03 06:58:14;;;;;;;9.48;6.18;;;1.40;99.90;;;;;;5051055;28;20242;-76
2021/12/03 07:00:41;;;;;;;11.82;6.53;;;1.40;99.90;;;;;;5050904;28;20165;-75
2021/12/03 07:03:06;;;;;;;13.35;6.05;;;1.50;99.90;;;;;;5050814;28;20203;-73
2021/12/03 07:05:33;;;;;;;8.68;5.05;;;1.50;99.90;;;;;;5032340;28;20276;-74
2021/12/03 07:07:59;;;;;;;12.70;6.82;;;1.60;99.90;;;;;;5032798;28;20587;-73
2021/12/03 07:10:24;;;;;;;7.22;4.78;;;1.60;99.90;;;;;;5050669;28;20193;-73
2021/12/03 07:12:52;;;;;;;8.60;5.93;;;1.70;99.90;;;;;;5050348;28;20626;-76
2021/12/03 07:15:18;;;;;;;10.63;6.53;;;1.80;99.90;;;;;;5050569;28;20900;-76
2021/12/03 07:17:45;;;;;;;11.73;4.80;;;1.80;99.90;;;;;;5032578;28;20280;-76
2021/12/03 07:20:11;;;;;;;14.30;6.53;;;1.80;99.90;;;;;;5050466;28;20154;-76
2021/12/03 07:22:37;;;;;;;12.25;4.78;;;1.80;99.90;;;;;;5032701;28;20184;-76
2021/12/03 07:25:05;;;;;;;8.05;5.63;;;1.90;99.90;;;;;;5050408;28;20158;-76
2021/12/03 07:27:32;;;;;;;10.93;6.20;;;2.00;99.90;;;;;;5050277;28;20284;-76
2021/12/03 07:29:58;;;;;;;7.95;4.80;;;2.00;99.90;;;;;;5032644;28;20173;-76
2021/12/03 07:32:24;;;;;;;8.63;5.35;;;1.90;99.90;;;;;;5050435;28;20653;-76
2021/12/03 07:34:50;;;;;;;10.30;5.57;;;2.00;99.90;;;;;;5050340;28;20646;-76
2021/12/03 07:37:17;;;;;;;9.75;5.82;;;2.00;99.90;;;;;;5032107;28;20219;-76
2021/12/03 07:39:44;;;;;;;9.25;5.15;;;2.10;99.90;;;;;;5050303;28;20158;-76
2021/12/03 07:42:10;;;;;;;8.23;5.78;;;2.00;99.90;;;;;;5050059;28;20173;-76
2021/12/03 07:44:36;;;;;;;10.85;6.75;;;2.10;99.90;;;;;;5032359;28;20241;-76
2021/12/03 07:47:03;;;;;;;10.57;6.30;;;2.10;99.90;;;;;;5049583;28;20192;-75
2021/12/03 07:49:29;;;;;;;9.73;5.70;;;2.10;99.90;;;;;;5050081;28;20165;-76
2021/12/03 07:51:55;;;;;;;10.70;5.50;;;2.00;99.90;;;;;;5032064;28;20174;-75
2021/12/03 07:54:22;;;;;;;9.15;6.32;;;2.10;99.90;;;;;;5049768;28;20168;-76
2021/12/03 07:56:48;;;;;;;10.98;7.25;;;2.10;99.90;;;;;;5049257;28;20225;-76
2021/12/03 07:59:14;;;;;;;17.77;7.50;;;2.10;99.90;;;;;;5049433;28;20153;-75
2021/12/03 08:01:45;;;;;;;13.43;6.68;;;2.20;99.90;;;;;;5031679;28;20256;-76
2021/12/03 08:04:12;;;;;;;11.95;6.78;;;2.30;99.90;;;;;;5031887;28;20165;-76
2021/12/03 08:06:40;;;;;;;10.55;5.07;;;2.30;99.90;;;;;;5049093;28;20200;-76
2021/12/03 08:09:07;;;;;;;13.48;6.50;;;2.30;99.90;;;;;;5049458;28;20621;-76
2021/12/03 08:11:34;;;;;;;15.95;10.68;;;2.40;99.90;;;;;;5049264;28;20193;-76
2021/12/03 08:13:59;;;;;;;12.32;6.53;;;2.60;99.90;;;;;;5031657;28;20173;-76
2021/12/03 08:16:25;;;;;;;11.65;5.88;;;2.60;99.90;;;;;;5049358;28;20193;-75
2021/12/03 08:18:51;;;;;;;11.27;5.68;;;2.70;99.90;;;;;;5049497;28;20158;-76
2021/12/03 08:21:17;;;;;;;10.68;6.90;;;2.90;99.90;;;;;;5049245;28;20248;-75
2021/12/03 08:23:43;;;;;;;18.63;6.88;;;3.00;99.90;;;;;;5031526;28;20176;-75
2021/12/03 08:26:09;;;;;;;14.60;7.82;;;3.20;99.90;;;;;;5049279;28;20157;-76
2021/12/03 08:28:35;;;;;;;10.65;6.57;;;3.40;99.90;;;;;;5031004;28;20517;-76
2021/12/03 08:31:01;;;;;;;14.30;7.20;;;3.60;99.90;;;;;;5030800;28;20176;-76
2021/12/03 08:33:27;;;;;;;10.88;7.05;;;4.10;99.90;;;;;;5030843;28;20231;-76
2021/12/03 08:35:53;;;;;;;11.68;6.35;;;4.60;99.90;;;;;;5048509;28;20204;-76
2021/12/03 08:38:19;;;;;;;11.95;5.80;;;4.70;99.90;;;;;;5030786;28;20169;-76
2021/12/03 08:40:44;;;;;;;11.98;6.20;;;4.70;99.90;;;;;;5049039;28;20188;-76
2021/12/03 08:43:10;;;;;;;13.50;6.85;;;4.90;99.90;;;;;;5048842;28;20191;-76
2021/12/03 08:45:38;;;;;;;11.50;6.40;;;4.50;99.90;;;;;;5031547;28;20236;-74
2021/12/03 08:48:05;;;;;;;14.20;5.97;;;4.50;99.90;;;;;;5049150;28;20164;-75
2021/12/03 08:50:36;;;;;;;9.15;5.93;;;4.80;99.90;;;;;;5049014;28;20158;-76
2021/12/03 08:55:33;;;;;;;12.05;6.40;;;5.30;99.90;;;;;;5048829;28;20252;-76
2021/12/03 08:57:59;;;;;;;12.27;5.68;;;5.40;99.90;;;;;;5048921;28;20225;-76
2021/12/03 09:00:25;;;;;;;9.88;5.93;;;5.50;99.90;;;;;;5031381;28;20172;-76
2021/12/03 09:02:51;;;;;;;8.00;5.53;;;5.20;99.90;;;;;;5048767;28;20193;-76
2021/12/03 09:05:17;;;;;;;8.57;5.35;;;4.90;99.90;;;;;;5049026;28;20157;-75
2021/12/03 09:07:44;;;;;;;10.15;5.93;;;5.10;99.90;;;;;;5049079;28;20164;-76
2021/12/03 09:10:13;;;;;;;12.10;5.57;;;5.50;99.90;;;;;;5048639;28;20157;-76
2021/12/03 09:12:41;;;;;;;7.40;5.35;;;5.90;99.90;;;;;;5048649;28;20736;-76
2021/12/03 09:15:11;;;;;;;12.32;6.93;;;6.20;99.90;;;;;;5030958;28;20169;-76
2021/12/03 09:17:50;;;;;;;10.55;6.20;;;6.60;99.90;;;;;;5048766;28;20618;-77
2021/12/03 09:23:09;;;;;;;3.70;1.92;;;7.80;99.90;;;;;;5052868;28;20260;-76
2021/12/03 09:25:38;;;;;;;3.25;2.55;;;8.40;99.90;;;;;;5034924;28;20256;-76
2021/12/03 09:28:08;;;;;;;2.83;2.55;;;8.30;99.90;;;;;;5028089;28;20277;-77
2021/12/03 09:30:39;;;;;;;3.00;1.70;;;8.40;99.90;;;;;;5030707;28;20256;-76
2021/12/03 09:33:09;;;;;;;1.00;0.95;;;7.70;99.90;;;;;;5049583;28;20264;-76
2021/12/03 09:35:41;;;;;;;0.70;0.70;;;7.10;99.90;;;;;;5032351;28;20193;-76
2021/12/03 09:38:07;;;;;;;1.10;0.98;;;6.70;99.90;;;;;;5014786;28;20181;-75
2021/12/03 09:40:36;;;;;;;1.20;1.00;;;6.60;99.90;;;;;;5036701;28;20175;-75
2021/12/03 09:43:04;;;;;;;1.42;0.80;;;5.80;99.90;;;;;;5034572;28;20693;-76
2021/12/03 09:45:30;;;;;;;2.65;1.17;;;5.30;99.90;;;;;;5052099;28;20158;-75
2021/12/03 09:47:57;;;;;;;3.60;1.17;;;5.00;99.90;;;;;;5052371;28;20168;-75
2021/12/03 09:50:23;;;;;;;5.18;0.75;;;4.90;99.90;;;;;;5034538;28;20166;-75
2021/12/03 09:55:24;;;;;;;2.92;1.25;;;5.10;99.90;;;;;;5051781;28;20244;-75
2021/12/03 09:58:45;;;;;;;3.47;1.17;;;5.30;99.90;;;;;;5046601;28;20201;-75
2021/12/03 10:00:46;;;;;;;5.85;1.63;;;5.40;99.90;;;;;;5028113;28;20224;-75
2021/12/03 10:12:05;;;;;;;1.35;0.93;;;6.50;99.90;;;;;;5051739;28;20304;-74
2021/12/03 10:20:06;;;;;;;1.23;0.50;;;6.60;99.90;;;;;;5051675;28;20215;-75
2021/12/03 10:28:11;;;;;;;1.33;0.70;;;5.60;99.90;;;;;;5051156;28;20180;-75
2021/12/03 10:44:04;;;;;;;2.28;0.52;;;8.90;99.90;;;;;;5051415;28;20165;-75
2021/12/03 10:51:47;;;;;;;0.68;0.60;;;6.90;99.90;;;;;;5051096;28;20212;-75
2021/12/03 11:00:59;;;;;;;4.38;1.20;;;9.20;99.90;;;;;;5071035;28;20240;-76
2021/12/03 11:30:55;;;;;;;0.65;0.65;;;8.10;99.90;;;;;;5070370;28;20192;-76
2021/12/03 11:51:03;;;;;;;1.73;0.43;;;8.00;99.90;;;;;;5069722;28;20191;-74
2021/12/03 12:38:48;;;;;;;0.80;0.30;;;5.30;99.90;;;;;;5048935;28;20192;-77
2021/12/03 13:07:19;;;;;;;0.35;0.20;;;5.70;99.90;;;;;;5045419;28;20199;-79
2021/12/03 14:40:35;;;;;;;0.63;0.63;;;3.50;99.90;;;;;;5031217;28;20234;-79
2021/12/03 14:53:42;;;;;;;1.17;1.00;;;3.40;99.90;;;;;;5055215;28;20169;-79
2021/12/03 14:56:12;;;;;;;1.25;1.15;;;3.40;99.90;;;;;;5070118;28;20223;-80
2021/12/03 15:01:41;;;;;;;1.33;0.90;;;3.30;99.90;;;;;;5091190;28;20184;-78
2021/12/03 15:04:31;;;;;;;1.33;0.95;;;3.10;99.90;;;;;;5077058;28;20641;-80
2021/12/03 15:07:15;;;;;;;0.82;0.50;;;3.10;99.90;;;;;;5050588;28;20177;-80
2021/12/03 15:09:43;;;;;;;0.80;0.57;;;3.00;99.90;;;;;;5049338;28;20231;-79
2021/12/03 15:28:02;;;;;;;1.42;0.70;;;2.70;99.90;;;;;;5050366;28;20162;-81
2021/12/03 15:36:06;;;;;;;1.63;0.95;;;2.10;99.90;;;;;;5026912;28;20263;-80
2021/12/03 15:38:46;;;;;;;5.00;0.90;;;1.90;99.90;;;;;;5049894;28;20165;-80
2021/12/03 15:58:21;;;;;;;1.52;0.88;;;0.40;99.90;;;;;;4988761;28;20163;-78
2021/12/03 16:03:42;;;;;;;3.05;1.40;;;0.30;99.90;;;;;;4988431;28;20632;-79
2021/12/03 16:08:45;;;;;;;4.55;1.58;;;0.10;99.90;;;;;;4988933;28;20182;-80
2021/12/03 16:17:07;;;;;;;5.88;2.50;;;-0.10;99.90;;;;;;4969063;29;20223;-79
2021/12/03 16:22:24;;;;;;;5.65;3.47;;;-0.30;99.90;;;;;;5018974;28;20252;-79
2021/12/03 16:52:42;;;;;;;6.60;3.53;;;-1.00;99.90;;;;;;5062771;28;20175;-81
2021/12/03 16:55:09;;;;;;;7.47;3.15;;;-0.90;99.90;;;;;;5067735;28;20190;-81
2021/12/03 16:57:36;;;;;;;7.68;3.50;;;-0.90;99.90;;;;;;5061813;28;20221;-81
2021/12/03 17:00:19;;;;;;;5.43;2.60;;;-1.00;99.90;;;;;;5068052;28;20187;-80
2021/12/03 17:02:54;;;;;;;4.95;3.25;;;-1.00;99.90;;;;;;5059875;28;20153;-81
2021/12/03 17:12:57;;;;;;;10.40;3.67;;;-1.30;99.90;;;;;;5054111;28;20561;-80
2021/12/03 17:48:28;;;;;;;11.55;5.70;;;-0.90;99.90;;;;;;5061764;28;20168;-78
2021/12/03 17:53:57;;;;;;;12.98;6.90;;;-1.10;99.90;;;;;;5061861;28;20161;-78
2021/12/03 17:56:25;;;;;;;13.20;5.40;;;-1.20;99.90;;;;;;5055820;28;20300;-80
2021/12/03 17:59:02;;;;;;;11.23;7.38;;;-1.30;99.90;;;;;;5060149;28;20177;-79
2021/12/03 18:01:34;;;;;;;15.57;7.38;;;-1.30;99.90;;;;;;5062148;28;20215;-77
2021/12/03 18:04:07;;;;;;;21.63;7.70;;;-1.40;99.90;;;;;;5061011;28;20875;-80
2021/12/03 18:06:57;;;;;;;12.88;5.95;;;-1.40;99.90;;;;;;5063399;28;20195;-80
2021/12/03 18:44:35;;;;;;;8.40;5.78;;;-1.80;99.90;;;;;;5058181;28;20172;-78
2021/12/03 18:47:38;;;;;;;10.95;4.97;;;-1.80;99.90;;;;;;5061343;28;20172;-78
2021/12/03 18:56:23;;;;;;;6.47;4.40;;;-1.70;99.90;;;;;;5063501;28;20179;-75
2021/12/03 18:58:16;;;;;;;8.40;4.50;;;-1.30;99.90;;;;;;5027382;28;20201;-75
2021/12/03 19:00:45;;;;;;;7.80;3.85;;;-1.40;99.90;;;;;;5043132;28;20190;-74
2021/12/03 19:05:59;;;;;;;6.95;3.67;;;-1.40;99.90;;;;;;5034440;28;20170;-74
2021/12/03 19:13:50;;;;;;;8.88;4.25;;;-1.60;99.90;;;;;;5043953;28;20172;-75
2021/12/03 19:16:17;;;;;;;4.32;3.38;;;-1.70;99.90;;;;;;5041501;28;20189;-75
2021/12/03 19:18:45;;;;;;;5.18;3.42;;;-1.80;99.90;;;;;;5035906;28;20279;-75
2021/12/03 19:21:17;;;;;;;4.10;3.42;;;-1.90;99.90;;;;;;5028260;28;20210;-76
2021/12/03 19:23:42;;;;;;;8.20;3.95;;;-1.90;99.90;;;;;;5037359;28;20182;-75
2021/12/03 19:26:08;;;;;;;5.20;4.03;;;-1.90;99.90;;;;;;5043053;28;20173;-75
2021/12/03 19:28:36;;;;;;;7.75;3.72;;;-1.80;99.90;;;;;;5031898;28;20162;-74
2021/12/03 19:31:05;;;;;;;8.63;4.93;;;-1.80;99.90;;;;;;5032182;28;20717;-75
2021/12/03 19:33:33;;;;;;;6.30;3.83;;;-1.70;99.90;;;;;;5050350;28;20162;-73
2021/12/03 19:35:59;;;;;;;4.55;3.30;;;-1.50;99.90;;;;;;5050260;28;20220;-75
2021/12/03 19:38:26;;;;;;;7.40;3.47;;;-1.50;99.90;;;;;;5050039;28;20636;-76
2021/12/03 19:40:58;;;;;;;5.53;2.97;;;-1.50;99.90;;;;;;5032315;28;20219;-79
2021/12/03 19:43:30;;;;;;;8.15;3.40;;;-1.40;99.90;;;;;;5024891;28;20166;-78
2021/12/03 19:46:04;;;;;;;4.43;3.03;;;-1.30;99.90;;;;;;5032188;28;20165;-75
2021/12/03 19:48:37;;;;;;;4.10;2.67;;;-1.30;99.90;;;;;;5012529;28;20169;-75
2021/12/03 19:51:11;;;;;;;6.85;3.50;;;-1.30;99.90;;;;;;5030045;28;20202;-77
2021/12/03 19:53:43;;;;;;;6.20;3.92;;;-1.30;99.90;;;;;;5012584;28;20235;-74
2021/12/03 19:56:09;;;;;;;7.43;3.85;;;-1.30;99.90;;;;;;5024787;28;20225;-75
2021/12/03 19:58:35;;;;;;;5.57;3.40;;;-1.40;99.90;;;;;;5048390;28;20173;-75
2021/12/03 20:01:01;;;;;;;5.22;4.15;;;-1.30;99.90;;;;;;5047681;28;20185;-74
2021/12/03 20:03:27;;;;;;;6.57;4.20;;;-1.30;99.90;;;;;;5055879;28;20247;-77
2021/12/03 20:05:53;;;;;;;6.15;3.13;;;-1.30;99.90;;;;;;5068150;28;20596;-78
2021/12/03 20:08:21;;;;;;;7.65;3.95;;;-1.30;99.90;;;;;;5069352;28;20196;-77
2021/12/03 20:10:49;;;;;;;4.60;2.92;;;-1.30;99.90;;;;;;5069046;28;20168;-74
2021/12/03 20:13:21;;;;;;;7.73;4.93;;;-1.30;99.90;;;;;;5067308;28;20399;-75
2021/12/03 20:15:58;;;;;;;7.70;3.72;;;-1.40;99.90;;;;;;5068187;28;20470;-75
2021/12/03 20:20:50;;;;;;;5.43;3.58;;;-1.60;99.90;;;;;;5069536;28;20184;-75
2021/12/03 20:31:25;;;;;;;7.07;3.50;;;-1.70;99.90;;;;;;5069488;28;20168;-76